Terminal Aerodrome Forecast
Issued by NWS San Angelo, TX

Home | Current Version | Previous Version | Text Only | Print | Product List | Glossary On
Versions: 1 2 3 4 5 6 7 8 9 10 11 12
842
FTUS44 KSJT 110520
TAFSJT
TAF
KSJT 110520Z 1106/1206 21008KT P6SM SKC
     FM111700 28008KT P6SM FEW250
     FM112200 36007KT P6SM FEW250=

USA.gov is the U.S. government's official web portal to all federal, state and local government web resources and services.